Time;durP1;ratioP1;P1;durP2;ratioP2;P2;SDS_P1;SDS_P2;PMS_P1;PMS_P2;Temp;Humidity;BMP_temperature;BMP_pressure;BME280_temperature;BME280_humidity;BME280_pressure;Samples;Min_cycle;Max_cycle;Signal;HPM_P1;HPM_P2
2021/01/29 00:02:03;;;;;;;1.13;1.10;;;8.20;98.20;;;;;;5037547;28;20373;-82
2021/01/29 00:04:29;;;;;;;1.30;1.20;;;8.20;98.30;;;;;;5027145;28;21091;-85
2021/01/29 00:06:55;;;;;;;1.03;1.03;;;8.20;98.20;;;;;;5034327;28;20301;-83
2021/01/29 00:09:40;;;;;;;1.20;1.20;;;8.10;98.30;;;;;;5030113;28;20895;-81
2021/01/29 00:12:08;;;;;;;1.00;1.00;;;8.00;98.30;;;;;;5027555;28;20587;-81
2021/01/29 00:14:34;;;;;;;1.10;1.00;;;8.00;98.90;;;;;;5026937;28;20206;-82
2021/01/29 00:17:01;;;;;;;1.10;1.00;;;8.00;98.50;;;;;;5027478;28;20226;-80
2021/01/29 00:19:29;;;;;;;1.07;1.00;;;8.10;98.60;;;;;;5034476;28;20644;-82
2021/01/29 00:21:55;;;;;;;1.20;1.10;;;8.00;98.50;;;;;;5026657;28;20306;-80
2021/01/29 00:24:21;;;;;;;1.13;1.03;;;8.10;98.40;;;;;;5032785;28;20287;-80
2021/01/29 00:26:48;;;;;;;1.00;1.00;;;8.10;98.40;;;;;;5025294;28;20231;-80
2021/01/29 00:29:15;;;;;;;0.90;0.90;;;8.10;98.20;;;;;;5031764;28;20199;-80
2021/01/29 00:31:41;;;;;;;1.00;1.00;;;8.20;98.10;;;;;;5029898;28;20241;-82
2021/01/29 00:34:07;;;;;;;1.23;0.97;;;8.20;97.80;;;;;;5030115;28;20233;-82
2021/01/29 00:36:34;;;;;;;1.43;1.03;;;8.20;98.00;;;;;;5025878;28;20203;-80
2021/01/29 00:39:02;;;;;;;1.10;1.00;;;8.20;97.70;;;;;;5021769;28;20203;-80
2021/01/29 00:41:28;;;;;;;1.40;1.30;;;8.20;97.60;;;;;;5028189;28;20281;-80
2021/01/29 00:43:54;;;;;;;1.80;1.10;;;8.20;97.50;;;;;;5025330;28;20636;-80
2021/01/29 00:46:21;;;;;;;1.17;1.10;;;8.30;97.30;;;;;;5027612;28;20195;-80
2021/01/29 00:48:48;;;;;;;1.30;1.20;;;8.20;97.30;;;;;;5034434;28;20217;-80
2021/01/29 00:51:15;;;;;;;1.05;1.00;;;8.20;97.20;;;;;;5024021;28;20596;-80
2021/01/29 00:53:42;;;;;;;0.80;0.80;;;8.20;97.50;;;;;;5034288;28;20261;-80
2021/01/29 00:56:08;;;;;;;1.17;1.10;;;8.10;97.40;;;;;;5029521;28;20201;-81
2021/01/29 00:58:34;;;;;;;1.20;1.10;;;8.00;97.70;;;;;;5030303;28;20223;-80
2021/01/29 01:01:01;;;;;;;1.10;1.00;;;7.90;98.00;;;;;;5026692;28;20357;-80
2021/01/29 01:03:28;;;;;;;1.30;1.10;;;8.00;98.10;;;;;;5021713;28;20631;-81
2021/01/29 01:05:55;;;;;;;1.43;1.30;;;8.10;97.70;;;;;;5027443;28;20202;-81
2021/01/29 01:08:22;;;;;;;1.10;1.10;;;8.10;97.60;;;;;;5033398;28;20720;-83
2021/01/29 01:10:48;;;;;;;0.90;0.90;;;8.10;97.50;;;;;;5027011;28;20664;-83
2021/01/29 01:13:14;;;;;;;1.03;1.00;;;8.00;97.70;;;;;;5029421;28;20677;-84
2021/01/29 01:15:41;;;;;;;0.95;0.90;;;7.90;97.80;;;;;;5032523;28;20205;-80
2021/01/29 01:18:14;;;;;;;1.27;0.77;;;7.80;98.20;;;;;;5030245;28;20759;-83
2021/01/29 01:20:41;;;;;;;1.02;0.93;;;7.90;98.30;;;;;;5027953;28;20724;-85
2021/01/29 01:23:08;;;;;;;0.93;0.93;;;7.80;98.20;;;;;;5027651;28;20293;-83
2021/01/29 01:25:34;;;;;;;0.90;0.90;;;7.80;98.40;;;;;;5035499;28;20289;-82
2021/01/29 01:28:09;;;;;;;1.02;0.98;;;7.70;98.60;;;;;;5021425;28;20306;-82
2021/01/29 01:30:37;;;;;;;0.80;0.80;;;7.80;98.60;;;;;;5030200;28;20194;-87
2021/01/29 01:33:07;;;;;;;0.80;0.80;;;7.80;98.40;;;;;;5033986;28;20230;-82
2021/01/29 01:35:33;;;;;;;1.80;0.80;;;7.90;98.30;;;;;;5022678;28;20737;-90
2021/01/29 01:38:01;;;;;;;1.10;1.00;;;7.80;98.50;;;;;;5029884;28;20685;-85
2021/01/29 01:40:30;;;;;;;1.00;0.90;;;7.80;98.60;;;;;;5035468;28;20285;-82
2021/01/29 01:42:56;;;;;;;0.70;0.70;;;8.00;98.30;;;;;;5023729;28;20241;-82
2021/01/29 01:45:56;;;;;;;1.27;1.00;;;8.00;98.30;;;;;;5029061;28;20195;-82
2021/01/29 01:48:31;;;;;;;0.80;0.80;;;7.90;98.30;;;;;;5030077;28;20222;-82
2021/01/29 01:50:58;;;;;;;0.63;0.63;;;8.10;98.00;;;;;;5033112;28;20193;-82
2021/01/29 01:53:30;;;;;;;0.93;0.60;;;8.10;97.80;;;;;;5033193;28;20226;-82
2021/01/29 01:56:02;;;;;;;0.75;0.75;;;8.10;97.80;;;;;;5030071;28;20202;-82
2021/01/29 01:58:30;;;;;;;0.60;0.60;;;8.10;97.60;;;;;;5031411;28;20238;-82
2021/01/29 02:00:57;;;;;;;0.70;0.70;;;8.10;97.90;;;;;;5036995;28;20222;-82
2021/01/29 02:03:28;;;;;;;0.60;0.60;;;8.20;97.50;;;;;;5036769;28;20222;-82
2021/01/29 02:06:46;;;;;;;0.70;0.70;;;8.20;97.60;;;;;;5028341;28;20593;-82
2021/01/29 02:09:15;;;;;;;0.63;0.63;;;8.20;97.70;;;;;;5030555;28;20239;-80
2021/01/29 02:11:41;;;;;;;0.52;0.52;;;8.20;97.40;;;;;;5020721;28;20234;-80
2021/01/29 02:14:08;;;;;;;0.70;0.70;;;8.20;97.80;;;;;;5032309;28;20313;-81
2021/01/29 02:16:48;;;;;;;0.82;0.82;;;8.20;97.30;;;;;;5038993;28;20206;-82
2021/01/29 02:19:36;;;;;;;0.95;0.70;;;8.30;97.30;;;;;;5022605;28;20218;-88
2021/01/29 02:22:54;;;;;;;1.13;0.52;;;8.30;97.10;;;;;;5023929;28;20238;-80
2021/01/29 02:26:06;;;;;;;0.60;0.60;;;8.20;97.60;;;;;;5025684;28;20204;-82
2021/01/29 02:28:56;;;;;;;1.52;0.40;;;8.10;97.80;;;;;;5033179;28;20302;-81
2021/01/29 02:31:55;;;;;;;0.50;0.50;;;8.10;98.10;;;;;;5031980;28;20201;-82
2021/01/29 02:34:46;;;;;;;0.60;0.60;;;8.10;98.00;;;;;;4978378;28;20233;-81
2021/01/29 02:37:50;;;;;;;1.08;0.90;;;8.30;97.70;;;;;;5031130;28;20232;-81
2021/01/29 02:40:20;;;;;;;0.60;0.60;;;8.30;97.50;;;;;;5033495;28;20277;-81
2021/01/29 02:43:06;;;;;;;0.63;0.55;;;8.30;97.40;;;;;;5028435;28;20309;-81
2021/01/29 02:45:44;;;;;;;0.50;0.50;;;8.40;97.50;;;;;;5035112;28;20196;-81
2021/01/29 02:48:19;;;;;;;0.60;0.60;;;8.30;97.40;;;;;;5035507;28;20222;-81
2021/01/29 02:50:50;;;;;;;0.50;0.50;;;8.30;97.30;;;;;;5032970;28;20187;-83
2021/01/29 02:53:36;;;;;;;0.60;0.60;;;8.40;97.30;;;;;;5025821;28;20231;-80
2021/01/29 02:56:16;;;;;;;1.27;0.73;;;8.40;97.60;;;;;;5019991;28;20203;-82
2021/01/29 03:24:28;;;;;;;0.65;0.57;;;7.90;99.80;;;;;;5039469;28;20280;-82
2021/01/29 03:27:01;;;;;;;0.60;0.60;;;7.90;99.90;;;;;;5041193;28;20301;-87
2021/01/29 03:29:33;;;;;;;1.02;0.70;;;8.00;99.90;;;;;;5044105;28;20214;-81
2021/01/29 03:32:04;;;;;;;0.70;0.70;;;8.00;99.90;;;;;;5037868;28;20238;-83
2021/01/29 03:34:35;;;;;;;0.75;0.75;;;7.90;99.90;;;;;;5028453;28;20222;-82
2021/01/29 03:37:18;;;;;;;1.08;0.65;;;8.00;99.90;;;;;;5033509;28;20352;-86
2021/01/29 03:39:45;;;;;;;1.13;0.70;;;7.90;99.90;;;;;;5032652;28;20671;-83
2021/01/29 03:42:21;;;;;;;0.70;0.70;;;7.90;99.90;;;;;;5036308;28;20238;-84
2021/01/29 03:44:52;;;;;;;1.03;0.83;;;7.90;99.90;;;;;;5032037;28;20209;-81
2021/01/29 03:47:32;;;;;;;1.10;0.80;;;8.00;99.90;;;;;;5032508;28;20579;-84
2021/01/29 03:50:15;;;;;;;1.20;0.73;;;8.00;99.90;;;;;;5032889;28;20877;-82
2021/01/29 03:52:47;;;;;;;0.63;0.63;;;7.90;99.90;;;;;;5029368;28;20230;-82
2021/01/29 03:55:37;;;;;;;1.23;0.80;;;8.00;99.90;;;;;;5042685;28;20195;-83
2021/01/29 03:58:10;;;;;;;0.73;0.73;;;7.90;99.90;;;;;;5032901;28;20222;-82
2021/01/29 04:00:42;;;;;;;0.90;0.80;;;8.00;99.90;;;;;;5024406;28;20215;-83
2021/01/29 04:03:15;;;;;;;1.90;0.85;;;8.00;99.90;;;;;;5019657;28;20227;-82
2021/01/29 04:05:51;;;;;;;0.90;0.70;;;8.00;99.90;;;;;;5022807;28;20204;-86
2021/01/29 04:08:22;;;;;;;0.80;0.80;;;7.90;99.90;;;;;;5021101;28;20257;-82
2021/01/29 04:10:54;;;;;;;0.60;0.60;;;8.00;99.90;;;;;;5026976;28;20214;-81
2021/01/29 04:13:27;;;;;;;0.80;0.70;;;8.00;99.90;;;;;;5022275;28;20611;-82
2021/01/29 04:15:54;;;;;;;0.70;0.70;;;8.00;99.90;;;;;;5028232;28;20210;-83
2021/01/29 04:18:24;;;;;;;0.73;0.73;;;8.00;99.90;;;;;;5025264;28;20234;-81
2021/01/29 04:20:57;;;;;;;0.60;0.57;;;7.90;99.90;;;;;;5028482;28;20207;-82
2021/01/29 04:23:26;;;;;;;1.50;0.80;;;7.90;99.90;;;;;;5025748;28;20229;-84
2021/01/29 04:25:59;;;;;;;0.80;0.80;;;7.90;99.90;;;;;;5028356;28;20688;-81
2021/01/29 04:28:29;;;;;;;0.73;0.70;;;7.90;99.90;;;;;;5031500;28;20222;-83
2021/01/29 04:31:01;;;;;;;1.63;0.73;;;7.90;99.90;;;;;;5028643;28;20209;-84
2021/01/29 04:33:32;;;;;;;2.00;0.83;;;7.90;99.90;;;;;;5027047;28;20247;-82
2021/01/29 04:36:00;;;;;;;0.80;0.80;;;7.80;99.90;;;;;;5020245;28;20199;-81
2021/01/29 04:38:37;;;;;;;0.70;0.60;;;7.90;99.90;;;;;;5031342;28;20233;-82
2021/01/29 04:41:18;;;;;;;1.70;0.83;;;7.90;99.90;;;;;;5031014;28;20588;-83
2021/01/29 04:44:26;;;;;;;0.80;0.70;;;7.90;99.90;;;;;;5020561;28;20265;-79
2021/01/29 04:47:03;;;;;;;0.70;0.70;;;7.90;99.90;;;;;;4986374;28;20244;-81
2021/01/29 04:49:45;;;;;;;0.70;0.67;;;7.90;99.90;;;;;;5026929;28;20645;-79
2021/01/29 04:52:45;;;;;;;2.13;0.70;;;8.00;99.90;;;;;;5022638;28;20234;-79
2021/01/29 04:55:46;;;;;;;0.60;0.60;;;8.00;99.90;;;;;;5029455;28;20195;-79
2021/01/29 04:58:15;;;;;;;0.50;0.50;;;7.90;99.70;;;;;;5028863;28;20218;-79
2021/01/29 05:01:22;;;;;;;0.50;0.50;;;7.90;99.80;;;;;;5035960;28;20214;-88
2021/01/29 05:04:36;;;;;;;0.77;0.70;;;7.80;99.90;;;;;;5026795;28;20231;-82
2021/01/29 05:07:24;;;;;;;0.60;0.60;;;7.90;99.50;;;;;;5026409;28;20231;-81
2021/01/29 05:10:32;;;;;;;0.70;0.70;;;7.80;99.60;;;;;;5031026;28;20194;-81
2021/01/29 05:13:30;;;;;;;0.87;0.60;;;7.70;99.80;;;;;;5020628;28;20257;-83
2021/01/29 05:16:47;;;;;;;0.60;0.60;;;7.70;99.30;;;;;;5003710;28;20202;-79
2021/01/29 05:19:37;;;;;;;1.17;0.60;;;7.70;98.80;;;;;;5024152;28;20211;-85
2021/01/29 05:22:28;;;;;;;0.77;0.70;;;7.70;99.10;;;;;;5028464;28;20214;-83
2021/01/29 05:25:26;;;;;;;1.53;0.70;;;7.60;99.20;;;;;;5024791;28;20549;-80
2021/01/29 05:28:20;;;;;;;1.37;0.70;;;7.50;99.50;;;;;;5025757;28;20219;-79
2021/01/29 05:31:02;;;;;;;1.50;0.70;;;7.50;99.60;;;;;;5020917;28;20229;-79
2021/01/29 05:34:01;;;;;;;0.50;0.50;;;7.50;99.80;;;;;;5032294;28;20222;-79
2021/01/29 05:36:39;;;;;;;1.83;0.83;;;7.40;99.80;;;;;;5025616;28;20218;-85
2021/01/29 05:39:20;;;;;;;1.47;0.70;;;7.40;99.90;;;;;;5023957;28;20559;-80
2021/01/29 05:42:21;;;;;;;0.60;0.60;;;7.30;99.90;;;;;;5029230;28;20252;-81
2021/01/29 05:45:15;;;;;;;1.23;0.80;;;7.30;99.90;;;;;;5021270;28;20264;-80
2021/01/29 05:48:01;;;;;;;1.07;1.00;;;7.30;99.90;;;;;;5022485;28;20227;-79
2021/01/29 05:50:39;;;;;;;0.80;0.80;;;7.30;99.90;;;;;;5025214;28;20199;-79
2021/01/29 05:53:40;;;;;;;1.20;0.60;;;7.20;99.90;;;;;;5021361;28;20238;-78
2021/01/29 05:56:18;;;;;;;0.73;0.67;;;7.20;99.90;;;;;;5022830;28;20249;-85
2021/01/29 05:59:28;;;;;;;1.20;0.80;;;7.10;99.90;;;;;;5025800;28;20224;-82
2021/01/29 06:02:16;;;;;;;1.53;0.80;;;7.20;99.90;;;;;;4942731;28;20233;-86
2021/01/29 06:05:15;;;;;;;2.33;0.97;;;7.20;99.90;;;;;;5023329;28;20619;-82
2021/01/29 06:08:32;;;;;;;0.70;0.70;;;7.10;99.90;;;;;;5025927;28;20221;-82
2021/01/29 06:11:31;;;;;;;1.17;0.90;;;7.30;99.90;;;;;;4948304;29;20204;-90
2021/01/29 06:14:36;;;;;;;0.73;0.70;;;7.20;99.90;;;;;;5017711;28;20668;-83
2021/01/29 06:17:19;;;;;;;1.73;0.90;;;7.20;99.90;;;;;;5022327;28;20311;-84
2021/01/29 06:20:17;;;;;;;0.80;0.80;;;7.10;99.90;;;;;;5021680;28;20199;-86
2021/01/29 06:23:23;;;;;;;1.67;0.80;;;7.20;99.90;;;;;;5014538;28;20699;-81
2021/01/29 06:26:18;;;;;;;0.60;0.60;;;7.20;99.90;;;;;;5023937;28;20281;-82
2021/01/29 06:29:28;;;;;;;0.80;0.80;;;7.20;99.90;;;;;;5035181;28;20277;-82
2021/01/29 06:32:22;;;;;;;2.60;0.87;;;7.20;99.90;;;;;;5017666;28;20236;-83
2021/01/29 06:35:03;;;;;;;1.83;1.20;;;7.10;99.90;;;;;;5017750;28;20226;-81
2021/01/29 06:37:40;;;;;;;1.03;1.00;;;7.10;99.90;;;;;;5023110;28;20234;-82
2021/01/29 06:40:16;;;;;;;1.63;1.10;;;7.10;99.90;;;;;;5020298;28;20212;-84
2021/01/29 06:43:06;;;;;;;1.00;0.90;;;7.10;99.90;;;;;;5020241;28;20234;-81
2021/01/29 06:46:02;;;;;;;1.40;0.87;;;7.10;99.90;;;;;;5021936;28;20198;-86
2021/01/29 06:49:00;;;;;;;2.70;1.20;;;7.10;99.90;;;;;;5018168;28;20238;-88
2021/01/29 06:51:55;;;;;;;2.20;0.80;;;7.10;99.90;;;;;;5034239;28;20216;-83
2021/01/29 06:54:46;;;;;;;1.20;1.00;;;7.10;99.90;;;;;;5034168;28;20214;-83
2021/01/29 06:57:26;;;;;;;1.87;1.50;;;7.00;99.90;;;;;;5026037;28;20354;-81
2021/01/29 07:00:23;;;;;;;1.40;1.30;;;7.00;99.90;;;;;;5015764;28;20576;-82
2021/01/29 07:03:26;;;;;;;1.03;0.93;;;6.90;99.90;;;;;;5021902;28;20230;-84
2021/01/29 07:06:27;;;;;;;0.87;0.70;;;6.90;99.90;;;;;;5019321;28;20199;-82
2021/01/29 07:09:23;;;;;;;0.70;0.70;;;6.80;99.90;;;;;;5001424;28;20217;-82
2021/01/29 07:12:21;;;;;;;0.87;0.80;;;6.80;99.90;;;;;;5018879;28;20223;-81
2021/01/29 07:15:19;;;;;;;0.93;0.93;;;6.80;99.90;;;;;;5019589;28;20227;-85
2021/01/29 07:18:00;;;;;;;3.43;0.80;;;6.90;99.90;;;;;;5020457;28;20233;-81
2021/01/29 07:20:39;;;;;;;1.60;1.50;;;7.00;99.90;;;;;;5022758;28;20317;-82
2021/01/29 07:23:40;;;;;;;0.70;0.70;;;7.20;99.40;;;;;;5017480;28;20736;-80
2021/01/29 07:26:20;;;;;;;1.03;1.03;;;7.30;99.00;;;;;;5010916;28;20202;-79
2021/01/29 07:29:06;;;;;;;1.43;1.33;;;7.40;98.70;;;;;;5014391;28;20685;-79
2021/01/29 07:31:46;;;;;;;1.20;1.10;;;7.40;98.40;;;;;;5016282;28;20204;-82
2021/01/29 07:34:24;;;;;;;1.13;0.90;;;7.40;98.60;;;;;;5015938;28;20723;-82
2021/01/29 07:37:15;;;;;;;1.33;1.00;;;7.40;98.80;;;;;;5012589;28;20248;-85
2021/01/29 07:40:16;;;;;;;0.90;0.90;;;7.50;98.90;;;;;;5018253;28;20198;-83
2021/01/29 07:42:57;;;;;;;1.37;0.80;;;7.70;98.80;;;;;;5017841;28;20226;-88
2021/01/29 07:49:15;;;;;;;1.33;1.23;;;7.80;98.60;;;;;;5016203;28;20294;-81
2021/01/29 07:51:48;;;;;;;0.70;0.70;;;8.00;98.30;;;;;;5020055;28;20238;-80
2021/01/29 07:54:58;;;;;;;0.70;0.70;;;8.20;97.90;;;;;;5021798;28;20562;-81
2021/01/29 07:57:51;;;;;;;1.37;1.30;;;8.20;97.70;;;;;;5002215;28;20222;-85
2021/01/29 08:00:44;;;;;;;0.60;0.60;;;8.30;97.50;;;;;;5021984;28;20221;-81
2021/01/29 08:03:47;;;;;;;0.70;0.70;;;8.40;97.30;;;;;;5019551;28;20238;-86
2021/01/29 08:06:18;;;;;;;0.70;0.70;;;8.40;97.50;;;;;;4999158;28;20198;-84
2021/01/29 08:08:54;;;;;;;0.87;0.80;;;8.50;97.20;;;;;;5018394;28;20231;-88
2021/01/29 08:11:23;;;;;;;0.53;0.53;;;8.60;96.70;;;;;;5021680;28;20601;-84
2021/01/29 08:20:57;;;;;;;0.50;0.50;;;8.70;96.20;;;;;;5020484;28;20228;-81
2021/01/29 08:23:31;;;;;;;0.90;0.90;;;8.80;96.30;;;;;;5018090;28;20280;-80
2021/01/29 08:26:48;;;;;;;0.60;0.60;;;8.90;96.10;;;;;;5022596;28;20199;-81
2021/01/29 08:29:55;;;;;;;1.10;1.10;;;8.90;95.90;;;;;;5028159;28;20301;-83
2021/01/29 08:32:56;;;;;;;1.50;0.70;;;8.90;95.90;;;;;;5029903;28;20228;-80
2021/01/29 08:36:13;;;;;;;0.50;0.50;;;9.00;95.40;;;;;;4959055;28;20605;-83
2021/01/29 08:38:55;;;;;;;0.70;0.70;;;9.20;94.30;;;;;;4987712;28;20313;-82
2021/01/29 08:41:36;;;;;;;0.85;0.70;;;9.30;94.30;;;;;;5030554;28;20213;-83
2021/01/29 08:44:48;;;;;;;0.50;0.50;;;9.40;94.00;;;;;;5034501;28;20333;-83
2021/01/29 08:51:19;;;;;;;0.60;0.60;;;9.40;92.60;;;;;;5029322;28;20181;-84
2021/01/29 08:54:19;;;;;;;0.53;0.53;;;9.30;92.40;;;;;;5035120;28;20226;-83
2021/01/29 08:57:11;;;;;;;1.33;0.70;;;9.30;92.50;;;;;;5040551;28;20638;-82
2021/01/29 08:59:40;;;;;;;0.95;0.50;;;9.10;92.80;;;;;;5029896;28;20286;-83
2021/01/29 09:05:30;;;;;;;1.27;1.23;;;9.00;92.50;;;;;;5023130;28;20598;-81
2021/01/29 09:08:00;;;;;;;0.70;0.57;;;9.00;92.50;;;;;;5026804;28;20207;-87
2021/01/29 09:10:45;;;;;;;0.80;0.80;;;8.90;92.50;;;;;;5022107;28;20214;-82
2021/01/29 09:13:18;;;;;;;0.50;0.50;;;9.00;92.60;;;;;;5028290;28;20226;-82
2021/01/29 09:15:51;;;;;;;1.30;0.93;;;9.00;92.50;;;;;;5021692;28;20203;-86
2021/01/29 09:18:26;;;;;;;0.93;0.93;;;9.00;92.50;;;;;;5024154;28;20233;-83
2021/01/29 09:21:04;;;;;;;1.10;1.00;;;8.90;92.70;;;;;;5025267;28;20213;-81
2021/01/29 09:23:36;;;;;;;1.10;1.10;;;8.80;93.10;;;;;;5026474;28;20329;-85
2021/01/29 09:26:13;;;;;;;1.17;0.80;;;8.80;93.10;;;;;;5025534;28;20200;-82
2021/01/29 09:28:44;;;;;;;0.90;0.90;;;8.80;93.10;;;;;;5026904;28;20230;-85
2021/01/29 09:31:14;;;;;;;2.13;1.00;;;8.90;92.70;;;;;;5029058;28;20210;-84
2021/01/29 09:33:47;;;;;;;1.17;1.10;;;8.90;92.70;;;;;;5021534;28;20226;-85
2021/01/29 09:36:17;;;;;;;2.33;1.00;;;8.90;92.60;;;;;;5021451;28;20203;-88
2021/01/29 09:38:49;;;;;;;1.27;1.13;;;9.00;92.50;;;;;;5023026;28;20232;-82
2021/01/29 09:41:20;;;;;;;1.00;1.00;;;9.00;92.40;;;;;;5023948;28;20203;-84
2021/01/29 09:43:51;;;;;;;1.20;1.10;;;9.10;92.10;;;;;;5026199;28;20232;-84
2021/01/29 09:46:25;;;;;;;2.70;0.90;;;9.20;91.90;;;;;;5024840;28;20217;-83
2021/01/29 09:48:58;;;;;;;0.98;0.82;;;9.40;91.70;;;;;;5030508;28;20210;-83
2021/01/29 09:51:50;;;;;;;1.00;0.75;;;9.60;90.60;;;;;;5030601;28;20194;-82
2021/01/29 09:54:25;;;;;;;0.95;0.90;;;9.90;90.90;;;;;;5024823;28;20222;-84
2021/01/29 09:56:57;;;;;;;1.95;0.85;;;10.70;87.20;;;;;;5029421;28;20253;-82
2021/01/29 09:59:45;;;;;;;1.88;0.70;;;11.50;82.00;;;;;;5037672;28;20222;-83
2021/01/29 10:02:27;;;;;;;0.85;0.70;;;12.00;77.40;;;;;;5031935;28;20573;-82
2021/01/29 10:08:37;;;;;;;1.00;0.60;;;11.50;78.20;;;;;;5032066;28;20221;-81
2021/01/29 10:11:11;;;;;;;0.90;0.70;;;11.20;79.40;;;;;;5031821;28;20668;-84
2021/01/29 10:14:06;;;;;;;0.50;0.50;;;11.00;79.90;;;;;;5030541;28;20234;-86
2021/01/29 10:16:40;;;;;;;0.82;0.82;;;10.90;80.00;;;;;;5026343;28;20199;-82
2021/01/29 10:19:18;;;;;;;2.08;0.70;;;10.70;81.80;;;;;;5026123;28;20249;-81
2021/01/29 10:39:09;;;;;;;0.47;0.40;;;10.90;81.60;;;;;;5041045;28;20209;-82
2021/01/29 10:41:42;;;;;;;0.90;0.90;;;11.30;80.00;;;;;;5024806;28;20229;-83
2021/01/29 10:44:39;;;;;;;1.75;0.40;;;11.70;77.40;;;;;;5024081;28;20229;-82
2021/01/29 10:51:00;;;;;;;0.40;0.40;;;12.00;75.20;;;;;;4944724;29;20229;-83
2021/01/29 10:53:27;;;;;;;4.53;1.67;;;12.10;75.20;;;;;;4942579;28;20301;-82
2021/01/29 10:55:59;;;;;;;0.60;0.60;;;11.80;75.60;;;;;;5023594;28;20614;-83
2021/01/29 10:58:52;;;;;;;1.58;0.93;;;12.00;77.00;;;;;;5028778;28;20643;-84
2021/01/29 11:01:30;;;;;;;1.10;0.80;;;12.30;75.40;;;;;;5027808;28;20264;-84
2021/01/29 11:04:05;;;;;;;0.70;0.70;;;12.30;72.80;;;;;;5035951;28;20214;-85
2021/01/29 11:07:12;;;;;;;0.85;0.82;;;12.10;75.20;;;;;;5042609;28;20194;-88
2021/01/29 11:09:55;;;;;;;0.50;0.50;;;11.70;75.00;;;;;;5028277;28;20266;-87
2021/01/29 11:16:01;;;;;;;0.40;0.40;;;11.30;77.60;;;;;;5022802;28;20174;-85
2021/01/29 11:22:26;;;;;;;0.40;0.40;;;11.00;79.80;;;;;;5043003;28;20252;-86
2021/01/29 11:25:33;;;;;;;1.23;0.70;;;10.90;80.20;;;;;;5033742;28;20226;-87
2021/01/29 11:28:06;;;;;;;0.60;0.60;;;11.00;79.60;;;;;;4929759;29;20238;-85
2021/01/29 11:30:37;;;;;;;0.80;0.80;;;11.00;80.10;;;;;;5015798;28;20204;-86
2021/01/29 11:36:33;;;;;;;1.00;0.75;;;11.10;79.80;;;;;;5031769;28;20341;-85
2021/01/29 11:39:09;;;;;;;0.80;0.80;;;11.00;77.50;;;;;;5031196;28;20192;-86
2021/01/29 11:48:17;;;;;;;0.50;0.50;;;11.00;78.50;;;;;;5020080;28;20229;-82
2021/01/29 11:51:21;;;;;;;0.73;0.60;;;11.00;78.70;;;;;;5033379;28;20277;-83
2021/01/29 11:54:14;;;;;;;2.45;1.60;;;10.90;78.00;;;;;;5039913;28;20257;-83
2021/01/29 11:57:02;;;;;;;1.02;0.93;;;10.90;78.90;;;;;;5020694;28;20203;-84
2021/01/29 11:59:36;;;;;;;1.42;1.33;;;10.80;78.70;;;;;;5024740;28;20615;-84
2021/01/29 12:02:25;;;;;;;1.00;1.00;;;11.00;78.20;;;;;;5021728;28;20233;-85
2021/01/29 12:05:34;;;;;;;0.75;0.60;;;10.80;78.80;;;;;;5025568;28;20199;-83
2021/01/29 12:11:57;;;;;;;4.65;0.60;;;10.90;79.00;;;;;;5040157;28;20602;-83
2021/01/29 12:18:55;;;;;;;2.53;0.80;;;11.00;78.40;;;;;;5040008;28;20217;-83
2021/01/29 12:21:37;;;;;;;1.27;0.70;;;11.10;78.80;;;;;;5039514;28;20186;-83
2021/01/29 12:24:15;;;;;;;0.85;0.77;;;11.20;77.00;;;;;;5031699;28;20711;-83
2021/01/29 12:27:08;;;;;;;2.13;1.10;;;11.40;74.60;;;;;;5024782;28;20199;-83
2021/01/29 12:29:43;;;;;;;1.00;0.57;;;11.30;74.40;;;;;;5032226;28;20303;-85
2021/01/29 12:32:35;;;;;;;0.93;0.60;;;11.10;74.30;;;;;;5032988;28;20226;-83
2021/01/29 12:35:06;;;;;;;0.95;0.70;;;11.10;74.30;;;;;;5036166;28;20203;-83
2021/01/29 12:37:35;;;;;;;2.70;2.10;;;11.00;74.10;;;;;;5034127;28;20700;-83
2021/01/29 12:40:06;;;;;;;2.05;0.93;;;11.00;74.10;;;;;;5028081;28;20207;-83
2021/01/29 12:42:47;;;;;;;1.70;0.70;;;10.80;74.00;;;;;;5039167;28;20242;-83
2021/01/29 12:45:40;;;;;;;1.38;0.80;;;10.90;72.10;;;;;;5033814;28;20198;-82
2021/01/29 12:48:37;;;;;;;2.40;1.17;;;10.90;72.50;;;;;;5032629;28;20253;-89
2021/01/29 12:51:11;;;;;;;1.13;0.88;;;10.80;73.90;;;;;;5027968;28;20188;-84
2021/01/29 12:53:55;;;;;;;0.75;0.75;;;10.70;73.80;;;;;;5038096;28;20199;-83
2021/01/29 12:56:53;;;;;;;1.85;0.60;;;11.00;68.60;;;;;;5022690;28;20208;-83
2021/01/29 12:59:36;;;;;;;1.02;0.57;;;11.00;68.10;;;;;;5031633;28;20246;-84
2021/01/29 13:02:43;;;;;;;1.65;0.68;;;11.10;67.40;;;;;;5032899;28;20218;-86
2021/01/29 13:08:47;;;;;;;0.70;0.70;;;10.70;68.10;;;;;;5029444;28;20685;-84
2021/01/29 13:11:32;;;;;;;1.30;1.00;;;10.50;70.00;;;;;;5026137;28;20712;-85
2021/01/29 13:14:06;;;;;;;0.70;0.70;;;10.20;72.50;;;;;;5038063;28;20229;-83
2021/01/29 13:16:40;;;;;;;0.82;0.65;;;10.20;73.20;;;;;;5031742;28;20195;-84
2021/01/29 13:19:25;;;;;;;0.77;0.60;;;10.30;73.30;;;;;;5041305;28;20219;-85
2021/01/29 13:21:54;;;;;;;0.47;0.47;;;10.30;73.30;;;;;;5028024;28;20231;-85
2021/01/29 13:24:28;;;;;;;1.55;0.90;;;10.40;73.50;;;;;;5027631;28;20202;-86
2021/01/29 13:26:56;;;;;;;0.68;0.68;;;10.30;71.20;;;;;;5034496;28;20228;-86
2021/01/29 13:29:25;;;;;;;0.57;0.57;;;10.30;73.30;;;;;;5032972;28;20666;-83
2021/01/29 13:31:56;;;;;;;0.80;0.80;;;10.30;73.30;;;;;;5028448;28;20249;-83
2021/01/29 13:35:04;;;;;;;0.50;0.50;;;10.40;73.30;;;;;;5035539;28;20211;-85
2021/01/29 13:37:31;;;;;;;3.63;0.65;;;10.50;73.60;;;;;;5029436;28;20231;-85
2021/01/29 13:40:25;;;;;;;1.90;0.50;;;10.60;70.30;;;;;;5026371;28;20290;-83
2021/01/29 13:42:54;;;;;;;0.80;0.70;;;10.80;71.90;;;;;;5040361;28;20309;-83
2021/01/29 13:45:31;;;;;;;0.88;0.88;;;10.90;68.60;;;;;;5033925;28;20297;-83
2021/01/29 13:48:04;;;;;;;1.35;0.65;;;10.50;70.70;;;;;;5028078;28;20226;-83
2021/01/29 13:50:35;;;;;;;0.40;0.40;;;10.40;73.50;;;;;;5022616;28;21050;-85
2021/01/29 13:53:04;;;;;;;0.70;0.70;;;10.40;72.00;;;;;;5020474;28;20223;-88
2021/01/29 13:55:35;;;;;;;0.80;0.80;;;10.20;73.20;;;;;;5029447;28;20242;-83
2021/01/29 13:58:06;;;;;;;0.90;0.90;;;9.90;74.90;;;;;;5034049;28;20317;-83
2021/01/29 14:00:38;;;;;;;0.70;0.70;;;9.70;75.80;;;;;;5027724;28;20225;-83
2021/01/29 14:03:13;;;;;;;0.70;0.70;;;9.70;78.80;;;;;;5029964;28;20218;-86
2021/01/29 14:05:43;;;;;;;0.80;0.50;;;9.50;79.80;;;;;;5029731;28;20224;-88
2021/01/29 14:08:12;;;;;;;1.17;0.80;;;9.50;80.60;;;;;;5032887;28;20226;-87
2021/01/29 14:10:44;;;;;;;0.60;0.60;;;9.50;78.90;;;;;;5027725;28;20206;-84
2021/01/29 14:13:36;;;;;;;0.85;0.77;;;9.40;80.90;;;;;;5027461;28;20223;-87
2021/01/29 14:16:12;;;;;;;1.38;0.90;;;9.20;84.50;;;;;;5034518;28;20234;-85
2021/01/29 14:18:50;;;;;;;1.23;0.85;;;9.00;88.20;;;;;;5027297;28;20230;-86
2021/01/29 14:21:23;;;;;;;1.92;0.90;;;8.90;89.40;;;;;;5031058;28;20195;-86
2021/01/29 14:23:54;;;;;;;1.23;0.85;;;8.80;89.70;;;;;;5032761;28;20314;-86
2021/01/29 14:26:35;;;;;;;1.20;1.10;;;8.70;89.70;;;;;;5035625;28;20233;-88
2021/01/29 14:29:10;;;;;;;1.10;1.10;;;8.70;88.40;;;;;;5028031;28;20242;-90
2021/01/29 14:31:47;;;;;;;1.15;1.00;;;8.70;90.00;;;;;;5036996;28;20228;-88
2021/01/29 14:34:33;;;;;;;1.95;1.20;;;8.80;87.00;;;;;;5027657;28;20287;-85
2021/01/29 14:37:10;;;;;;;1.17;0.90;;;8.80;86.30;;;;;;5021575;28;20234;-88
2021/01/29 14:39:59;;;;;;;1.30;0.80;;;8.90;85.20;;;;;;5032963;28;20203;-82
2021/01/29 14:42:40;;;;;;;2.22;1.00;;;8.90;84.00;;;;;;5026227;28;20574;-85
2021/01/29 14:45:21;;;;;;;0.85;0.60;;;8.90;83.30;;;;;;5024740;28;20199;-83
2021/01/29 14:48:29;;;;;;;0.65;0.65;;;9.00;83.20;;;;;;5039595;28;20246;-84
2021/01/29 14:51:17;;;;;;;0.75;0.75;;;8.90;81.90;;;;;;5025620;28;20567;-86
2021/01/29 15:08:13;;;;;;;0.77;0.67;;;8.20;84.00;;;;;;5031825;28;20237;-83
2021/01/29 15:14:03;;;;;;;0.60;0.60;;;8.10;83.60;;;;;;5034317;28;20257;-83
2021/01/29 15:26:50;;;;;;;0.87;0.87;;;7.80;84.30;;;;;;5033488;28;20229;-85
2021/01/29 15:29:17;;;;;;;0.67;0.67;;;7.80;85.50;;;;;;5038292;28;20305;-86
2021/01/29 15:31:49;;;;;;;0.63;0.63;;;7.80;85.40;;;;;;5038713;28;20249;-82
2021/01/29 15:34:52;;;;;;;0.50;0.50;;;7.70;85.60;;;;;;5036214;28;20222;-83
2021/01/29 15:37:50;;;;;;;1.00;0.90;;;7.70;86.30;;;;;;5026543;28;20196;-81
2021/01/29 15:40:22;;;;;;;0.50;0.50;;;7.60;86.30;;;;;;5027622;28;20201;-78
2021/01/29 15:42:49;;;;;;;1.30;0.83;;;7.50;87.50;;;;;;5023630;28;20195;-78
2021/01/29 15:45:52;;;;;;;0.60;0.60;;;7.50;86.80;;;;;;5024307;28;20229;-80
2021/01/29 15:49:10;;;;;;;0.53;0.53;;;7.40;87.40;;;;;;5029078;28;20268;-78
2021/01/29 15:51:56;;;;;;;1.80;0.70;;;7.40;87.70;;;;;;5030492;28;20224;-79
2021/01/29 15:54:45;;;;;;;1.00;0.60;;;7.20;89.20;;;;;;5025733;28;20214;-79
2021/01/29 15:57:40;;;;;;;0.70;0.70;;;7.20;87.90;;;;;;5033010;28;20232;-79
2021/01/29 16:00:47;;;;;;;1.70;0.70;;;7.20;88.10;;;;;;5024885;28;20226;-78
2021/01/29 16:03:39;;;;;;;1.03;1.00;;;7.10;89.50;;;;;;5024093;28;20222;-82
2021/01/29 16:06:06;;;;;;;2.13;2.03;;;7.00;89.40;;;;;;5019052;28;20209;-83
2021/01/29 16:08:34;;;;;;;1.00;1.00;;;7.00;90.30;;;;;;5018103;28;20660;-79
2021/01/29 16:11:23;;;;;;;0.70;0.70;;;6.90;90.80;;;;;;5024870;28;20198;-81
2021/01/29 16:13:50;;;;;;;1.80;1.10;;;6.80;91.80;;;;;;5016336;28;20887;-78